Time;durP1;ratioP1;P1;durP2;ratioP2;P2;SDS_P1;SDS_P2;PMS_P1;PMS_P2;Temp;Humidity;BMP_temperature;BMP_pressure;BME280_temperature;BME280_humidity;BME280_pressure;Samples;Min_cycle;Max_cycle;Signal;HPM_P1;HPM_P2
2021/05/12 00:02:23;;;;;;;20.10;16.23;;;17.50;75.00;;;;;;5061381;28;20082;-69
2021/05/12 00:04:48;;;;;;;19.70;16.33;;;17.50;75.10;;;;;;5062829;28;20079;-69
2021/05/12 00:07:14;;;;;;;19.42;16.13;;;17.50;75.10;;;;;;5059935;28;20134;-70
2021/05/12 00:09:40;;;;;;;17.38;14.98;;;17.50;75.10;;;;;;5062228;28;20036;-69
2021/05/12 00:12:06;;;;;;;18.85;16.85;;;17.40;75.30;;;;;;5053388;28;20108;-70
2021/05/12 00:14:32;;;;;;;19.25;16.27;;;17.40;75.50;;;;;;5054881;28;20060;-70
2021/05/12 00:17:01;;;;;;;19.98;17.35;;;17.40;75.70;;;;;;5053535;28;20057;-70
2021/05/12 00:19:28;;;;;;;21.27;18.42;;;17.30;75.70;;;;;;5053273;28;20053;-71
2021/05/12 00:22:29;;;;;;;23.95;19.38;;;17.30;75.80;;;;;;5049501;28;20140;-71
2021/05/12 00:24:40;;;;;;;19.92;17.77;;;17.30;75.80;;;;;;5050471;28;20036;-70
2021/05/12 00:27:07;;;;;;;24.33;19.30;;;17.30;75.90;;;;;;5049931;28;20025;-71
2021/05/12 00:29:32;;;;;;;19.15;17.05;;;17.20;75.90;;;;;;5052373;28;20481;-71
2021/05/12 00:31:58;;;;;;;22.25;18.77;;;17.20;76.00;;;;;;5066589;28;20043;-69
2021/05/12 00:34:25;;;;;;;20.67;18.20;;;17.10;76.00;;;;;;5050355;28;20029;-69
2021/05/12 00:36:50;;;;;;;19.00;16.92;;;17.10;76.10;;;;;;5050890;28;20021;-71
2021/05/12 00:39:16;;;;;;;19.27;17.02;;;17.00;76.30;;;;;;5060964;28;20044;-71
2021/05/12 00:41:42;;;;;;;20.38;17.17;;;17.00;76.30;;;;;;5050972;28;20029;-71
2021/05/12 00:44:17;;;;;;;21.58;18.15;;;17.00;76.30;;;;;;5054483;28;20378;-71
2021/05/12 00:46:47;;;;;;;20.73;17.92;;;16.90;76.30;;;;;;5051790;28;20100;-71
2021/05/12 00:49:14;;;;;;;22.48;17.83;;;16.90;76.40;;;;;;5050230;28;20045;-71
2021/05/12 00:51:40;;;;;;;19.70;15.95;;;16.90;76.30;;;;;;5053582;28;20032;-71
2021/05/12 00:54:07;;;;;;;21.05;16.20;;;16.80;76.30;;;;;;5050209;28;20033;-71
2021/05/12 00:56:34;;;;;;;21.52;15.52;;;16.80;76.40;;;;;;5054479;28;20028;-71
2021/05/12 00:59:00;;;;;;;20.67;16.65;;;16.80;76.40;;;;;;5058055;28;20041;-71
2021/05/12 01:01:26;;;;;;;20.90;15.07;;;16.70;76.30;;;;;;5069593;28;20534;-70
2021/05/12 01:03:52;;;;;;;19.20;15.40;;;16.70;76.30;;;;;;5066816;28;20108;-71
2021/05/12 01:06:23;;;;;;;23.83;16.52;;;16.70;76.10;;;;;;5066551;28;20055;-71
2021/05/12 01:08:49;;;;;;;19.17;16.20;;;16.80;76.00;;;;;;5055166;28;20040;-70
2021/05/12 01:11:15;;;;;;;20.58;14.93;;;16.80;75.90;;;;;;5068922;28;20058;-71
2021/05/12 01:13:40;;;;;;;23.00;15.52;;;16.80;75.80;;;;;;5057804;28;20033;-71
2021/05/12 01:16:06;;;;;;;18.83;14.98;;;16.80;75.70;;;;;;5055458;28;20037;-70
2021/05/12 01:18:31;;;;;;;20.33;15.15;;;16.70;75.60;;;;;;5059967;28;20548;-71
2021/05/12 01:21:00;;;;;;;19.55;15.00;;;16.70;75.60;;;;;;5058326;28;20067;-71
2021/05/12 01:23:28;;;;;;;18.15;13.88;;;16.70;75.40;;;;;;5067626;28;20316;-71
2021/05/12 01:25:55;;;;;;;22.95;15.65;;;16.70;75.30;;;;;;5050069;28;20025;-70
2021/05/12 01:28:24;;;;;;;19.90;14.43;;;16.70;75.20;;;;;;5049536;28;20502;-71
2021/05/12 01:31:09;;;;;;;27.88;13.60;;;16.70;75.10;;;;;;5066101;28;20024;-71
2021/05/12 01:33:37;;;;;;;20.42;12.80;;;16.70;74.80;;;;;;5062480;28;20059;-71
2021/05/12 01:36:04;;;;;;;16.98;12.48;;;16.60;74.70;;;;;;5049170;28;20100;-71
2021/05/12 01:38:30;;;;;;;14.93;12.32;;;16.60;74.30;;;;;;5049766;28;20522;-71
2021/05/12 01:40:56;;;;;;;19.80;12.77;;;16.60;74.20;;;;;;5061682;28;20056;-71
2021/05/12 01:43:22;;;;;;;15.15;12.35;;;16.60;74.10;;;;;;5048091;28;20185;-71
2021/05/12 01:45:48;;;;;;;17.52;12.98;;;16.60;74.20;;;;;;5050065;28;20472;-71
2021/05/12 01:48:14;;;;;;;17.65;13.25;;;16.60;74.20;;;;;;5056998;28;20075;-71
2021/05/12 01:50:40;;;;;;;16.83;13.23;;;16.50;74.20;;;;;;5066713;28;20462;-70
2021/05/12 01:53:06;;;;;;;16.45;12.85;;;16.50;74.10;;;;;;5063737;28;20060;-71
2021/05/12 01:55:32;;;;;;;17.98;13.40;;;16.40;74.20;;;;;;5058730;28;20518;-71
2021/05/12 01:57:58;;;;;;;16.70;13.70;;;16.50;74.20;;;;;;5048390;28;20306;-71
2021/05/12 02:00:29;;;;;;;20.75;13.85;;;16.40;74.20;;;;;;5048523;28;20479;-71
2021/05/12 02:02:55;;;;;;;18.23;13.07;;;16.40;74.20;;;;;;5058832;28;20062;-71
2021/05/12 02:05:23;;;;;;;17.25;12.70;;;16.40;74.20;;;;;;5069276;28;20036;-71
2021/05/12 02:07:52;;;;;;;15.20;12.60;;;16.30;74.10;;;;;;5054963;28;20041;-69
2021/05/12 02:10:18;;;;;;;15.50;10.77;;;16.30;74.00;;;;;;5055167;28;20029;-71
2021/05/12 02:12:44;;;;;;;17.05;13.25;;;16.30;73.90;;;;;;5065620;28;20067;-70
2021/05/12 02:15:11;;;;;;;14.90;12.50;;;16.30;73.90;;;;;;5055819;28;20052;-71
2021/05/12 02:17:37;;;;;;;15.80;11.38;;;16.20;73.80;;;;;;5057970;28;20094;-71
2021/05/12 02:20:05;;;;;;;14.40;12.02;;;16.20;73.90;;;;;;5057266;28;20033;-72
2021/05/12 02:22:30;;;;;;;14.73;11.57;;;16.20;74.00;;;;;;5093645;28;20117;-71
2021/05/12 02:24:56;;;;;;;19.30;12.43;;;16.10;74.00;;;;;;5066087;28;20486;-71
2021/05/12 02:27:22;;;;;;;18.42;12.13;;;16.10;74.10;;;;;;5053739;28;20040;-71
2021/05/12 02:29:47;;;;;;;19.38;12.75;;;16.10;74.20;;;;;;5048347;28;20321;-71
2021/05/12 02:32:13;;;;;;;18.75;12.38;;;16.10;74.20;;;;;;5049550;28;20037;-71
2021/05/12 02:34:38;;;;;;;17.70;13.82;;;16.10;74.30;;;;;;5063211;28;20037;-72
2021/05/12 02:37:04;;;;;;;18.48;13.50;;;16.10;74.30;;;;;;5058867;28;20037;-71
2021/05/12 02:39:30;;;;;;;19.42;14.00;;;16.10;74.40;;;;;;5055126;28;20052;-71
2021/05/12 02:41:56;;;;;;;20.85;14.82;;;16.10;74.60;;;;;;5066999;28;20032;-71
2021/05/12 02:44:22;;;;;;;20.50;15.73;;;16.10;74.70;;;;;;5041768;28;20082;-71
2021/05/12 02:46:48;;;;;;;22.77;16.45;;;16.10;74.70;;;;;;5054408;28;20421;-71
2021/05/12 02:49:14;;;;;;;22.33;15.88;;;16.20;74.80;;;;;;5046014;28;20513;-71
2021/05/12 02:51:40;;;;;;;22.20;15.52;;;16.20;74.70;;;;;;5051982;28;20041;-71
2021/05/12 02:54:06;;;;;;;24.02;16.90;;;16.10;74.70;;;;;;5048242;28;20382;-71
2021/05/12 02:56:32;;;;;;;30.55;16.25;;;16.10;74.70;;;;;;5049311;28;20069;-71
2021/05/12 02:58:58;;;;;;;21.55;15.98;;;16.20;74.80;;;;;;5048876;28;20073;-71
2021/05/12 03:01:23;;;;;;;22.65;14.77;;;16.20;74.70;;;;;;5059695;28;20051;-71
2021/05/12 03:03:49;;;;;;;20.48;14.85;;;16.20;74.60;;;;;;5040367;28;20426;-71
2021/05/12 03:06:15;;;;;;;21.10;15.45;;;16.20;74.50;;;;;;5055732;28;20028;-71
2021/05/12 03:08:40;;;;;;;18.77;15.10;;;16.20;74.50;;;;;;5064569;28;20059;-71
2021/05/12 03:11:06;;;;;;;22.95;16.80;;;16.20;74.30;;;;;;5060726;28;20037;-71
2021/05/12 03:13:32;;;;;;;23.02;14.95;;;16.20;74.20;;;;;;5068277;28;20394;-71
2021/05/12 03:15:57;;;;;;;23.15;16.95;;;16.20;74.10;;;;;;5071224;28;20058;-71
2021/05/12 03:18:26;;;;;;;20.65;15.15;;;16.20;74.00;;;;;;5056755;28;20052;-71
2021/05/12 03:20:51;;;;;;;19.67;15.38;;;16.20;74.00;;;;;;5057205;28;20039;-71
2021/05/12 03:23:17;;;;;;;19.25;14.68;;;16.10;73.80;;;;;;5051209;28;20112;-71
2021/05/12 03:25:43;;;;;;;19.63;14.35;;;16.10;73.80;;;;;;5065471;28;20523;-71
2021/05/12 03:28:08;;;;;;;23.52;16.55;;;16.10;73.80;;;;;;5068999;28;20042;-71
2021/05/12 03:30:36;;;;;;;24.98;17.00;;;16.10;73.80;;;;;;5056957;28;20116;-70
2021/05/12 03:33:04;;;;;;;21.35;16.33;;;16.00;73.70;;;;;;5057001;28;20408;-71
2021/05/12 03:35:30;;;;;;;21.58;15.50;;;15.90;73.90;;;;;;5054025;28;20033;-71
2021/05/12 03:37:56;;;;;;;21.48;15.98;;;15.90;73.90;;;;;;5050817;28;20043;-71
2021/05/12 03:40:22;;;;;;;24.48;16.02;;;15.90;74.00;;;;;;5067545;28;20086;-70
2021/05/12 03:42:48;;;;;;;21.10;15.80;;;15.90;73.90;;;;;;5055270;28;20529;-71
2021/05/12 03:45:14;;;;;;;22.98;16.55;;;15.90;73.90;;;;;;5055159;28;20033;-70
2021/05/12 03:47:40;;;;;;;22.50;17.83;;;15.80;73.90;;;;;;5051567;28;20094;-71
2021/05/12 03:50:07;;;;;;;23.95;17.42;;;15.80;74.00;;;;;;5056125;28;20131;-71
2021/05/12 03:52:33;;;;;;;29.75;18.92;;;15.80;74.10;;;;;;5070194;28;20048;-70
2021/05/12 03:54:59;;;;;;;21.92;17.80;;;15.80;74.30;;;;;;5064452;28;20029;-70
2021/05/12 03:57:25;;;;;;;27.67;19.40;;;15.80;74.30;;;;;;5051838;28;20056;-70
2021/05/12 03:59:50;;;;;;;23.92;17.67;;;15.70;74.30;;;;;;5061201;28;20040;-71
2021/05/12 04:02:16;;;;;;;23.92;18.95;;;15.70;74.50;;;;;;5068812;28;20033;-71
2021/05/12 04:04:42;;;;;;;24.27;18.60;;;15.70;74.70;;;;;;5058556;28;20114;-71
2021/05/12 04:07:08;;;;;;;26.10;18.52;;;15.70;74.80;;;;;;5063928;28;20036;-71
2021/05/12 04:09:34;;;;;;;24.33;18.52;;;15.70;74.70;;;;;;5067854;28;20489;-71
2021/05/12 04:11:59;;;;;;;22.20;18.90;;;15.60;74.70;;;;;;5051435;28;20029;-71
2021/05/12 04:14:26;;;;;;;27.05;19.02;;;15.60;74.80;;;;;;5049603;28;20076;-71
2021/05/12 04:16:52;;;;;;;28.30;19.48;;;15.60;74.90;;;;;;5052919;28;20040;-71
2021/05/12 04:19:19;;;;;;;25.63;18.13;;;15.60;74.90;;;;;;5067972;28;20121;-71
2021/05/12 04:21:45;;;;;;;29.58;19.52;;;15.60;75.00;;;;;;5069002;28;20193;-71
2021/05/12 04:24:11;;;;;;;22.90;18.30;;;15.60;75.00;;;;;;5068358;28;20489;-71
2021/05/12 04:26:37;;;;;;;24.55;17.73;;;15.60;75.00;;;;;;5067234;28;20047;-71
2021/05/12 04:29:04;;;;;;;24.58;17.85;;;15.60;75.00;;;;;;5060929;28;20036;-71
2021/05/12 04:31:30;;;;;;;23.50;17.58;;;15.60;75.00;;;;;;5052915;28;20423;-71
2021/05/12 04:33:56;;;;;;;24.00;18.05;;;15.70;74.90;;;;;;5063683;28;20093;-71
2021/05/12 04:36:21;;;;;;;34.75;16.45;;;15.70;74.80;;;;;;5067652;28;20037;-72
2021/05/12 04:38:47;;;;;;;25.02;16.30;;;15.70;74.80;;;;;;5085858;28;20048;-73
2021/05/12 04:41:13;;;;;;;23.98;17.05;;;15.70;74.80;;;;;;5067987;28;20047;-72
2021/05/12 04:43:38;;;;;;;22.30;17.70;;;15.70;74.80;;;;;;5068784;28;20111;-71
2021/05/12 04:46:04;;;;;;;20.50;16.10;;;15.70;74.80;;;;;;5064200;28;20167;-72
2021/05/12 04:48:30;;;;;;;20.75;16.25;;;15.60;74.70;;;;;;5052780;28;20427;-72
2021/05/12 04:50:56;;;;;;;20.92;16.90;;;15.70;74.80;;;;;;5066576;28;20032;-72
2021/05/12 04:53:22;;;;;;;20.80;15.65;;;15.70;74.80;;;;;;5065763;28;20055;-71
2021/05/12 04:55:48;;;;;;;25.05;16.27;;;15.70;74.90;;;;;;5064917;28;20037;-71
2021/05/12 04:58:13;;;;;;;23.95;17.00;;;15.60;74.80;;;;;;5057863;28;20067;-71
2021/05/12 05:00:40;;;;;;;19.83;15.65;;;15.70;74.90;;;;;;5049351;28;20033;-71
2021/05/12 05:03:07;;;;;;;20.30;14.93;;;15.70;74.90;;;;;;5048997;28;20029;-71
2021/05/12 05:05:33;;;;;;;20.55;15.68;;;15.60;74.80;;;;;;5049213;28;20087;-71
2021/05/12 05:07:59;;;;;;;20.63;15.38;;;15.70;74.90;;;;;;5064377;28;20032;-71
2021/05/12 05:10:24;;;;;;;26.30;16.75;;;15.70;74.90;;;;;;5067771;28;20043;-71
2021/05/12 05:12:50;;;;;;;22.85;14.32;;;15.70;74.90;;;;;;5064494;28;20513;-71
2021/05/12 05:15:16;;;;;;;21.65;15.98;;;15.70;74.90;;;;;;5063541;28;20035;-71
2021/05/12 05:17:43;;;;;;;17.48;13.60;;;15.80;74.90;;;;;;5064250;28;20041;-71
2021/05/12 05:20:13;;;;;;;24.55;15.02;;;15.80;74.80;;;;;;5053450;28;20033;-71
2021/05/12 05:22:39;;;;;;;22.88;14.38;;;15.90;74.60;;;;;;5056710;28;20439;-70
2021/05/12 05:25:05;;;;;;;20.45;15.05;;;15.90;74.40;;;;;;5048123;28;20033;-70
2021/05/12 05:27:31;;;;;;;24.38;16.50;;;16.00;74.30;;;;;;5059554;28;20025;-71
2021/05/12 05:29:57;;;;;;;20.73;15.07;;;16.10;74.20;;;;;;5066374;28;20028;-70
2021/05/12 05:32:22;;;;;;;22.52;14.98;;;16.10;74.00;;;;;;5067652;28;20478;-71
2021/05/12 05:34:49;;;;;;;22.13;16.13;;;16.20;73.90;;;;;;5067446;28;20040;-71
2021/05/12 05:37:15;;;;;;;22.50;16.17;;;16.30;73.70;;;;;;5055934;28;20067;-71
2021/05/12 05:39:41;;;;;;;20.67;15.07;;;16.40;73.60;;;;;;5065373;28;20347;-71
2021/05/12 05:42:11;;;;;;;20.77;14.82;;;16.50;73.40;;;;;;5065967;28;20099;-71
2021/05/12 05:44:38;;;;;;;17.85;14.30;;;16.60;73.30;;;;;;5054725;28;20083;-72
2021/05/12 05:47:04;;;;;;;24.67;15.80;;;16.60;73.00;;;;;;5067558;28;20035;-71
2021/05/12 05:49:30;;;;;;;20.83;16.48;;;16.60;72.90;;;;;;5068037;28;20302;-72
2021/05/12 05:51:56;;;;;;;21.63;15.10;;;16.70;72.80;;;;;;5058045;28;20021;-70
2021/05/12 05:54:22;;;;;;;18.90;14.68;;;16.70;72.70;;;;;;5082271;28;20052;-71
2021/05/12 05:56:51;;;;;;;19.50;14.48;;;16.60;73.10;;;;;;5048408;28;20821;-71
2021/05/12 05:59:16;;;;;;;23.10;15.27;;;16.80;72.60;;;;;;5052388;28;20033;-71
2021/05/12 06:01:42;;;;;;;24.25;16.58;;;16.80;72.50;;;;;;5065474;28;20090;-71
2021/05/12 06:04:08;;;;;;;20.88;15.23;;;16.90;72.40;;;;;;5050045;28;20032;-70
2021/05/12 06:06:34;;;;;;;27.25;16.30;;;17.00;72.30;;;;;;5061945;28;20048;-71
2021/05/12 06:09:00;;;;;;;21.60;15.90;;;17.10;72.10;;;;;;5053234;28;20036;-72
2021/05/12 06:11:26;;;;;;;22.50;15.65;;;17.20;72.00;;;;;;5048551;28;20029;-72
2021/05/12 06:13:51;;;;;;;19.50;14.70;;;17.30;71.50;;;;;;5053629;28;20044;-72
2021/05/12 06:16:18;;;;;;;22.13;16.80;;;17.50;71.20;;;;;;5060026;28;20125;-71
2021/05/12 06:18:47;;;;;;;25.38;15.98;;;17.60;70.90;;;;;;5066657;28;20065;-71
2021/05/12 06:21:13;;;;;;;24.38;16.23;;;17.80;70.30;;;;;;5057761;28;20024;-71
2021/05/12 06:23:40;;;;;;;19.98;14.88;;;18.00;70.10;;;;;;5066369;28;20032;-71
2021/05/12 06:26:13;;;;;;;20.00;14.43;;;18.10;69.40;;;;;;5064043;28;20048;-72
2021/05/12 06:28:40;;;;;;;23.00;16.23;;;18.30;69.10;;;;;;5052053;28;20024;-72
2021/05/12 06:31:07;;;;;;;19.08;13.30;;;18.50;68.60;;;;;;5052539;28;20108;-72
2021/05/12 06:33:34;;;;;;;18.40;15.18;;;18.80;68.40;;;;;;5064625;28;20028;-73
2021/05/12 06:36:00;;;;;;;20.40;15.02;;;18.90;67.70;;;;;;5065775;28;20124;-73
2021/05/12 06:38:26;;;;;;;17.80;13.40;;;19.20;67.30;;;;;;5049383;28;20111;-73
2021/05/12 06:40:51;;;;;;;18.83;13.10;;;19.30;66.80;;;;;;5059983;28;20044;-73
2021/05/12 06:43:17;;;;;;;17.98;9.68;;;19.50;65.00;;;;;;5065757;28;20028;-72
2021/05/12 06:45:43;;;;;;;12.00;8.18;;;19.50;64.30;;;;;;5089907;28;20150;-73
2021/05/12 06:48:09;;;;;;;12.65;7.53;;;19.40;63.50;;;;;;5053568;28;20037;-72
2021/05/12 06:50:35;;;;;;;13.38;8.45;;;19.40;62.70;;;;;;5073481;28;20039;-71
2021/05/12 06:53:00;;;;;;;13.65;7.05;;;19.50;62.70;;;;;;5060675;28;20065;-73
2021/05/12 06:55:26;;;;;;;11.95;7.22;;;19.50;62.00;;;;;;5061041;28;20056;-73
2021/05/12 06:57:52;;;;;;;9.88;6.32;;;19.60;62.20;;;;;;5052487;28;20037;-72
2021/05/12 07:00:19;;;;;;;12.98;6.88;;;19.60;62.00;;;;;;5057199;28;20684;-71
2021/05/12 07:02:45;;;;;;;15.65;6.93;;;19.80;61.60;;;;;;5057746;28;20040;-72
2021/05/12 07:05:15;;;;;;;14.18;6.40;;;20.00;61.20;;;;;;5049675;28;20360;-71
2021/05/12 07:07:45;;;;;;;10.25;6.13;;;20.20;60.90;;;;;;5055416;28;20120;-72
2021/05/12 07:10:11;;;;;;;14.13;7.07;;;20.30;60.10;;;;;;5068435;28;20039;-72
2021/05/12 07:12:37;;;;;;;12.13;6.97;;;20.30;59.00;;;;;;5070746;28;20071;-73
2021/05/12 07:15:05;;;;;;;11.82;5.65;;;20.40;59.10;;;;;;5058960;28;20444;-72
2021/05/12 07:17:30;;;;;;;12.73;7.20;;;20.60;58.80;;;;;;5068885;28;20109;-72
2021/05/12 07:19:56;;;;;;;10.45;5.97;;;20.90;58.90;;;;;;5063157;28;20100;-72
2021/05/12 07:22:23;;;;;;;10.45;6.00;;;21.10;58.00;;;;;;5068493;28;20144;-72
2021/05/12 07:24:49;;;;;;;9.95;6.22;;;21.30;57.50;;;;;;5057563;28;20100;-72
2021/05/12 07:27:18;;;;;;;13.77;6.20;;;21.60;57.10;;;;;;5054657;28;20044;-72
2021/05/12 07:29:44;;;;;;;10.80;6.03;;;21.80;55.80;;;;;;5059855;28;20472;-72
2021/05/12 07:32:09;;;;;;;10.98;4.82;;;22.00;54.90;;;;;;5052534;28;20241;-72
2021/05/12 07:34:36;;;;;;;8.55;4.00;;;22.10;53.90;;;;;;5053660;28;20029;-72
2021/05/12 07:37:02;;;;;;;12.45;4.63;;;22.30;53.60;;;;;;5067353;28;20455;-72
2021/05/12 07:39:31;;;;;;;8.85;4.80;;;22.40;52.90;;;;;;5052644;28;20101;-72
2021/05/12 07:41:59;;;;;;;14.18;5.47;;;22.60;52.10;;;;;;5051013;28;20242;-72
2021/05/12 07:44:25;;;;;;;10.88;5.15;;;22.80;52.80;;;;;;5066889;28;20068;-72
2021/05/12 07:46:51;;;;;;;9.88;5.00;;;23.10;52.10;;;;;;5070406;28;20402;-72
2021/05/12 07:49:17;;;;;;;11.20;5.28;;;23.30;51.90;;;;;;5052263;28;20041;-71
2021/05/12 07:51:42;;;;;;;10.25;4.65;;;23.60;51.20;;;;;;5054945;28;20037;-69
2021/05/12 07:54:08;;;;;;;9.13;4.70;;;23.90;50.00;;;;;;5058806;28;20090;-71
2021/05/12 07:56:34;;;;;;;9.68;4.80;;;24.20;49.40;;;;;;5068684;28;20040;-69
2021/05/12 07:58:59;;;;;;;11.35;5.15;;;24.50;48.60;;;;;;5053917;28;20036;-69
2021/05/12 08:01:29;;;;;;;10.60;5.70;;;24.70;48.00;;;;;;5066601;28;20110;-70
2021/05/12 08:03:55;;;;;;;10.15;4.13;;;25.00;47.70;;;;;;5059372;28;20492;-69
2021/05/12 08:06:21;;;;;;;12.23;4.97;;;25.00;46.20;;;;;;5059779;28;20045;-69
2021/05/12 08:08:46;;;;;;;9.50;4.30;;;25.00;46.80;;;;;;5059247;28;20085;-68
2021/05/12 08:11:12;;;;;;;10.63;4.72;;;25.20;46.20;;;;;;5067152;28;20112;-68
2021/05/12 08:13:37;;;;;;;10.63;5.28;;;25.40;45.70;;;;;;5060287;28;20074;-68
2021/05/12 08:16:03;;;;;;;9.52;4.80;;;25.50;45.50;;;;;;5064195;28;20438;-70
2021/05/12 08:18:29;;;;;;;10.48;4.38;;;25.70;44.80;;;;;;5063977;28;20119;-70
2021/05/12 08:20:55;;;;;;;13.27;4.90;;;25.90;44.50;;;;;;5060767;28;20100;-70
2021/05/12 08:23:22;;;;;;;9.98;4.60;;;26.00;44.20;;;;;;5051919;28;20044;-69
2021/05/12 08:25:47;;;;;;;9.50;4.32;;;26.10;44.20;;;;;;5059071;28;20053;-68
2021/05/12 08:28:14;;;;;;;7.13;3.60;;;26.30;44.10;;;;;;5050153;28;20076;-69
2021/05/12 08:30:45;;;;;;;11.75;4.40;;;26.60;43.00;;;;;;5055638;28;20021;-69
2021/05/12 08:33:11;;;;;;;9.65;3.53;;;26.80;41.80;;;;;;5081387;28;20040;-69
2021/05/12 08:35:42;;;;;;;7.15;2.95;;;27.00;40.60;;;;;;5057580;28;20029;-69
2021/05/12 08:38:09;;;;;;;7.47;2.80;;;27.20;40.70;;;;;;5062870;28;20110;-69
2021/05/12 08:40:35;;;;;;;7.68;2.80;;;27.40;39.90;;;;;;5077919;28;20334;-69
2021/05/12 08:43:04;;;;;;;7.80;3.05;;;27.50;39.40;;;;;;5059228;28;20033;-70
2021/05/12 08:45:30;;;;;;;8.50;3.15;;;27.60;38.70;;;;;;5044539;28;20144;-70
2021/05/12 08:47:57;;;;;;;8.32;3.35;;;27.70;38.70;;;;;;5059929;28;20032;-70
2021/05/12 08:50:25;;;;;;;14.63;3.67;;;27.80;38.90;;;;;;5083306;28;20132;-70
2021/05/12 08:52:52;;;;;;;10.85;3.53;;;27.90;38.70;;;;;;5070812;28;20078;-70
2021/05/12 08:55:19;;;;;;;7.72;3.25;;;28.00;38.70;;;;;;5067193;28;20111;-70
2021/05/12 08:57:44;;;;;;;6.80;3.17;;;28.10;38.40;;;;;;5069513;28;20032;-70
2021/05/12 09:00:11;;;;;;;8.20;3.40;;;28.20;38.10;;;;;;5045025;28;20411;-71
2021/05/12 09:02:37;;;;;;;7.95;3.13;;;28.20;37.30;;;;;;5060074;28;20032;-71
2021/05/12 09:05:07;;;;;;;7.25;2.55;;;28.30;38.10;;;;;;5056607;28;20477;-71
2021/05/12 09:07:34;;;;;;;10.13;3.03;;;28.50;36.80;;;;;;5050621;28;20024;-70
2021/05/12 09:10:00;;;;;;;8.80;3.50;;;28.60;36.80;;;;;;5060967;28;20059;-70
2021/05/12 09:12:41;;;;;;;8.45;2.63;;;28.70;36.90;;;;;;5067429;28;20175;-70
2021/05/12 09:15:08;;;;;;;7.72;2.83;;;28.80;36.30;;;;;;5056905;28;20032;-70
2021/05/12 09:17:40;;;;;;;8.13;3.67;;;28.80;36.00;;;;;;5065214;28;20017;-70
2021/05/12 09:20:24;;;;;;;;;;;28.60;36.80;;;;;;5059235;28;20053;-70
2021/05/12 09:22:59;;;;;;;7.32;3.00;;;29.20;35.60;;;;;;5050058;28;19917;-70
2021/05/12 09:25:25;;;;;;;7.22;3.58;;;29.30;35.20;;;;;;5060780;28;20116;-70
2021/05/12 09:27:52;;;;;;;6.72;3.38;;;29.50;35.10;;;;;;5062628;28;20029;-70
2021/05/12 09:30:25;;;;;;;9.38;3.22;;;29.60;34.80;;;;;;5063525;28;20044;-70
2021/05/12 09:32:51;;;;;;;7.68;3.80;;;29.50;34.60;;;;;;5055801;28;20067;-70
2021/05/12 09:35:22;;;;;;;7.72;3.20;;;29.60;34.30;;;;;;5060750;28;20040;-71
2021/05/12 09:37:49;;;;;;;11.10;3.00;;;29.70;33.30;;;;;;5057951;28;20048;-70
2021/05/12 09:40:15;;;;;;;8.30;2.30;;;29.80;32.70;;;;;;5047756;28;20037;-71
2021/05/12 09:42:42;;;;;;;6.40;2.47;;;29.80;32.40;;;;;;5051471;28;20840;-71
2021/05/12 09:45:20;;;;;;;10.55;3.10;;;29.90;32.80;;;;;;5066383;28;20025;-70
2021/05/12 09:47:53;;;;;;;8.27;3.30;;;29.90;33.00;;;;;;5058343;28;20033;-71
2021/05/12 09:50:33;;;;;;;8.52;2.53;;;30.10;32.90;;;;;;5054541;28;20207;-70
2021/05/12 09:53:13;;;;;;;6.28;2.90;;;30.20;33.00;;;;;;5052336;28;20531;-70
2021/05/12 09:55:45;;;;;;;6.03;2.58;;;30.40;32.20;;;;;;5062389;28;20343;-70
2021/05/12 09:58:15;;;;;;;9.65;3.60;;;30.50;32.80;;;;;;5059943;28;20040;-70
2021/05/12 10:00:43;;;;;;;8.02;2.67;;;30.40;32.60;;;;;;5058019;28;20061;-70
2021/05/12 10:03:12;;;;;;;7.85;2.45;;;30.50;32.90;;;;;;5072280;28;20450;-70
2021/05/12 10:06:02;;;;;;;7.20;2.10;;;30.50;33.60;;;;;;5055225;28;20033;-70
2021/05/12 10:08:30;;;;;;;6.97;2.42;;;30.60;32.80;;;;;;5063494;28;20482;-71
2021/05/12 10:11:01;;;;;;;8.65;2.70;;;30.40;32.50;;;;;;5058717;28;20040;-71
2021/05/12 10:13:28;;;;;;;7.97;2.15;;;30.30;31.30;;;;;;5066111;28;20304;-71
2021/05/12 10:15:54;;;;;;;4.68;1.90;;;30.10;31.30;;;;;;5062827;28;20552;-71
2021/05/12 10:18:20;;;;;;;7.47;2.25;;;30.00;31.60;;;;;;5061311;28;20041;-70
2021/05/12 10:20:46;;;;;;;6.88;2.13;;;29.90;31.30;;;;;;5052164;28;20025;-69
2021/05/12 10:23:12;;;;;;;6.82;2.17;;;29.70;31.30;;;;;;5055273;28;20135;-70
2021/05/12 10:25:39;;;;;;;4.95;1.70;;;29.30;30.70;;;;;;5062464;28;20036;-69
2021/05/12 10:28:08;;;;;;;6.80;2.28;;;29.20;32.20;;;;;;5060719;28;20028;-70
2021/05/12 10:30:35;;;;;;;3.90;1.58;;;29.30;30.50;;;;;;5059981;28;20035;-70
2021/05/12 10:33:01;;;;;;;6.15;1.90;;;29.50;30.90;;;;;;5057574;28;20036;-71
2021/05/12 10:35:38;;;;;;;6.97;2.25;;;29.50;31.20;;;;;;5061065;28;20024;-70
2021/05/12 10:38:06;;;;;;;10.15;2.72;;;29.20;31.80;;;;;;5058273;28;20060;-70
2021/05/12 10:40:41;;;;;;;6.60;2.10;;;28.90;32.20;;;;;;5055845;28;20036;-70
2021/05/12 10:48:32;;;;;;;11.02;2.30;;;28.10;33.40;;;;;;5052259;28;20051;-70
2021/05/12 10:51:00;;;;;;;7.60;2.05;;;27.70;34.00;;;;;;5057852;28;20493;-70
2021/05/12 10:53:31;;;;;;;7.88;2.30;;;27.30;34.70;;;;;;5058146;28;20439;-70
2021/05/12 10:55:56;;;;;;;10.05;3.15;;;26.90;35.10;;;;;;5058979;28;20036;-70
2021/05/12 10:58:24;;;;;;;8.82;2.60;;;26.70;35.10;;;;;;5055518;28;20033;-71
2021/05/12 11:00:58;;;;;;;5.93;2.10;;;26.50;35.60;;;;;;5063428;28;20025;-70
2021/05/12 11:03:26;;;;;;;8.57;2.42;;;26.20;35.80;;;;;;5067328;28;20417;-71
2021/05/12 11:05:51;;;;;;;7.00;2.13;;;25.90;36.70;;;;;;5064324;28;20078;-71
2021/05/12 11:08:18;;;;;;;9.40;2.70;;;26.00;36.80;;;;;;5074883;28;20433;-71
2021/05/12 11:11:02;;;;;;;6.78;2.13;;;26.20;36.50;;;;;;5067572;28;20446;-71
2021/05/12 11:13:30;;;;;;;6.60;1.92;;;26.60;37.50;;;;;;5055661;28;20143;-71
2021/05/12 11:15:58;;;;;;;9.02;3.10;;;27.00;36.90;;;;;;5084539;28;20040;-71
2021/05/12 11:18:36;;;;;;;8.00;2.65;;;27.40;35.70;;;;;;5063581;28;20044;-71
2021/05/12 11:21:18;;;;;;;9.48;2.78;;;27.70;35.70;;;;;;5060562;28;20062;-71
2021/05/12 11:24:15;;;;;;;6.57;1.88;;;27.90;34.80;;;;;;5080649;28;20019;-71
2021/05/12 11:32:06;;;;;;;6.47;2.40;;;28.00;34.50;;;;;;5069688;28;20492;-71
2021/05/12 11:34:33;;;;;;;7.78;2.10;;;28.00;34.70;;;;;;5061563;28;20643;-70
2021/05/12 11:37:16;;;;;;;7.57;2.38;;;27.90;34.70;;;;;;5052168;28;20029;-70
2021/05/12 11:39:44;;;;;;;;;;;27.70;35.50;;;;;;5059073;28;20062;-70
2021/05/12 11:42:26;;;;;;;6.93;2.15;;;27.80;34.40;;;;;;5068639;28;19954;-69
2021/05/12 11:45:10;;;;;;;4.95;1.73;;;27.60;34.60;;;;;;5059662;28;20033;-69
2021/05/12 11:47:43;;;;;;;4.25;1.77;;;27.50;34.10;;;;;;5062680;28;20444;-70
2021/05/12 11:50:23;;;;;;;5.10;1.67;;;27.40;33.70;;;;;;5064531;28;20045;-69
2021/05/12 11:52:50;;;;;;;5.45;1.50;;;27.30;34.40;;;;;;5058691;28;20025;-70
2021/05/12 11:55:19;;;;;;;6.80;2.05;;;27.10;33.20;;;;;;5059480;28;20016;-69
2021/05/12 11:57:45;;;;;;;3.65;1.38;;;27.00;33.20;;;;;;5060791;28;20099;-69
2021/05/12 12:00:15;;;;;;;7.00;1.95;;;27.00;34.00;;;;;;5057947;28;20032;-69
2021/05/12 12:02:41;;;;;;;8.23;2.30;;;27.10;33.50;;;;;;5068133;28;20136;-70
2021/05/12 12:05:09;;;;;;;6.43;2.15;;;27.20;34.20;;;;;;5057665;28;20143;-70
2021/05/12 12:07:34;;;;;;;5.78;1.88;;;27.40;34.60;;;;;;5068616;28;20140;-69
2021/05/12 12:10:02;;;;;;;9.30;2.28;;;27.80;34.00;;;;;;5063788;28;20029;-70
2021/05/12 12:12:28;;;;;;;5.82;2.00;;;28.10;33.40;;;;;;5065205;28;20089;-70
2021/05/12 12:15:07;;;;;;;5.50;1.75;;;28.30;33.40;;;;;;5056465;28;20388;-70
2021/05/12 12:17:33;;;;;;;8.45;2.25;;;28.40;33.20;;;;;;5062793;28;20017;-70
2021/05/12 12:20:06;;;;;;;5.72;2.40;;;28.50;32.20;;;;;;5057041;28;20027;-70
2021/05/12 12:22:32;;;;;;;8.25;2.58;;;28.60;33.10;;;;;;5062711;28;20048;-70
2021/05/12 12:25:20;;;;;;;7.53;2.13;;;28.70;32.90;;;;;;5049607;28;20112;-70
2021/05/12 12:27:47;;;;;;;6.35;1.90;;;27.30;31.90;;;;;;5054974;28;20033;-69
2021/05/12 12:30:17;;;;;;;6.95;2.15;;;28.60;32.30;;;;;;5058833;28;20113;-69
2021/05/12 12:32:43;;;;;;;6.30;2.83;;;28.20;31.70;;;;;;5055003;28;20067;-69
2021/05/12 12:35:09;;;;;;;6.18;1.92;;;28.10;32.50;;;;;;5073487;28;20064;-70
2021/05/12 12:37:37;;;;;;;5.20;1.77;;;28.00;32.70;;;;;;5065428;28;20147;-69
2021/05/12 12:40:10;;;;;;;5.07;1.55;;;28.00;32.30;;;;;;5064142;28;20029;-69
2021/05/12 12:42:53;;;;;;;7.07;2.53;;;27.80;32.40;;;;;;5056226;28;20029;-70
2021/05/12 12:45:27;;;;;;;5.82;2.05;;;27.70;32.80;;;;;;5048690;28;20087;-70
2021/05/12 12:48:04;;;;;;;7.88;2.20;;;27.40;33.30;;;;;;5048602;28;20037;-70
2021/05/12 12:50:32;;;;;;;5.80;1.75;;;27.30;34.40;;;;;;5054804;28;20390;-70